createdAt,value
2022-08-26T00:01:54.738Z,10.17
2022-08-26T00:04:23.565Z,9.30
2022-08-26T00:06:51.787Z,7.53
2022-08-26T00:09:20.129Z,8.90
2022-08-26T00:11:48.159Z,18.83
2022-08-26T00:14:16.718Z,7.57
2022-08-26T00:16:47.908Z,6.93
2022-08-26T00:19:18.356Z,5.50
2022-08-26T00:21:46.182Z,5.30
2022-08-26T00:24:16.109Z,13.83
2022-08-26T00:26:43.830Z,12.17
2022-08-26T00:29:13.068Z,6.53
2022-08-26T00:31:41.381Z,6.33
2022-08-26T00:34:11.205Z,5.17
2022-08-26T00:36:41.227Z,6.00
2022-08-26T00:39:09.315Z,6.17
2022-08-26T00:41:39.153Z,7.60
2022-08-26T00:44:08.639Z,4.23
2022-08-26T00:46:40.033Z,4.40
2022-08-26T00:49:17.896Z,7.13
2022-08-26T00:51:51.726Z,8.93
2022-08-26T00:54:22.020Z,6.87
2022-08-26T00:56:55.575Z,10.83
2022-08-26T00:59:24.815Z,7.03
2022-08-26T01:01:53.270Z,8.40
2022-08-26T01:04:23.683Z,5.17
2022-08-26T01:06:55.711Z,8.50
2022-08-26T01:09:24.219Z,6.23
2022-08-26T01:11:56.615Z,5.97
2022-08-26T01:14:27.425Z,7.83
2022-08-26T01:16:55.096Z,6.23
2022-08-26T01:19:26.196Z,10.93
2022-08-26T01:21:58.858Z,9.70
2022-08-26T01:24:29.884Z,11.67
2022-08-26T01:27:01.617Z,8.67
2022-08-26T01:29:31.880Z,9.50
2022-08-26T01:32:00.208Z,9.03
2022-08-26T01:34:32.081Z,9.00
2022-08-26T01:37:05.532Z,7.20
2022-08-26T01:39:37.219Z,6.00
2022-08-26T01:42:10.385Z,8.00
2022-08-26T01:44:44.387Z,7.43
2022-08-26T01:47:14.036Z,6.10
2022-08-26T01:49:44.056Z,9.03
2022-08-26T01:52:15.159Z,8.63
2022-08-26T01:54:46.366Z,6.03
2022-08-26T01:57:21.053Z,7.20
2022-08-26T01:59:50.243Z,7.70
2022-08-26T02:02:18.344Z,4.70
2022-08-26T02:04:53.113Z,7.43
2022-08-26T02:07:23.499Z,8.57
2022-08-26T02:09:56.787Z,7.63
2022-08-26T02:12:27.124Z,10.97
2022-08-26T02:14:59.159Z,6.63
2022-08-26T02:17:35.942Z,10.13
2022-08-26T02:20:04.770Z,9.00
2022-08-26T02:22:34.268Z,5.87
2022-08-26T02:25:13.274Z,6.87
2022-08-26T02:27:41.928Z,10.30
2022-08-26T02:30:13.983Z,8.30
2022-08-26T02:32:41.923Z,10.70
2022-08-26T02:35:12.497Z,13.43
2022-08-26T02:37:41.870Z,10.83
2022-08-26T02:40:14.192Z,6.37
2022-08-26T02:42:42.806Z,8.87
2022-08-26T02:45:11.681Z,7.97
2022-08-26T02:47:39.613Z,7.83
2022-08-26T02:50:08.188Z,8.33
2022-08-26T02:52:35.868Z,11.60
2022-08-26T02:55:05.911Z,7.33
2022-08-26T02:57:35.026Z,10.13
2022-08-26T03:00:03.084Z,10.80
2022-08-26T03:02:30.800Z,9.97
2022-08-26T03:05:02.275Z,10.70
2022-08-26T03:07:30.382Z,6.77
2022-08-26T03:09:58.885Z,7.77
2022-08-26T03:12:26.529Z,9.20
2022-08-26T03:14:56.197Z,7.33
2022-08-26T03:17:24.086Z,7.93
2022-08-26T03:19:57.182Z,6.53
2022-08-26T03:22:26.136Z,6.60
2022-08-26T03:24:54.947Z,11.43
2022-08-26T03:27:22.583Z,8.13
2022-08-26T03:30:08.148Z,11.23
2022-08-26T03:32:41.555Z,9.60
2022-08-26T03:35:09.729Z,7.80
2022-08-26T03:37:37.481Z,9.50
2022-08-26T03:40:10.391Z,8.37
2022-08-26T03:42:39.200Z,13.00
2022-08-26T03:45:10.405Z,9.17
2022-08-26T03:47:38.244Z,6.60
2022-08-26T03:50:10.238Z,7.53
2022-08-26T03:52:43.026Z,11.30
2022-08-26T03:55:12.047Z,8.93
2022-08-26T03:57:40.076Z,8.30
2022-08-26T04:00:14.363Z,10.77
2022-08-26T04:02:48.763Z,8.73
2022-08-26T04:05:20.356Z,10.63
2022-08-26T04:07:48.657Z,12.87
2022-08-26T04:10:20.192Z,7.90
2022-08-26T04:12:48.324Z,11.80
2022-08-26T04:15:17.764Z,12.17
2022-08-26T04:17:45.905Z,8.60
2022-08-26T04:20:16.193Z,7.57
2022-08-26T04:22:45.400Z,7.47
2022-08-26T04:25:13.906Z,11.03
2022-08-26T04:27:41.673Z,7.00
2022-08-26T04:30:10.646Z,8.20
2022-08-26T04:32:38.580Z,18.03
2022-08-26T04:35:07.126Z,9.80
2022-08-26T04:37:37.038Z,9.77
2022-08-26T04:40:10.054Z,8.60
2022-08-26T04:42:37.801Z,10.13
2022-08-26T04:45:10.419Z,8.40
2022-08-26T04:47:40.777Z,9.90
2022-08-26T04:50:09.672Z,7.63
2022-08-26T04:52:39.108Z,9.23
2022-08-26T04:55:09.322Z,11.70
2022-08-26T04:57:37.153Z,10.50
2022-08-26T05:00:06.709Z,11.00
2022-08-26T05:02:34.597Z,9.80
2022-08-26T05:05:02.599Z,10.00
2022-08-26T05:07:31.237Z,14.23
2022-08-26T05:10:00.272Z,8.43
2022-08-26T05:12:29.614Z,11.10
2022-08-26T05:14:57.467Z,8.57
2022-08-26T05:17:25.134Z,8.30
2022-08-26T05:19:52.765Z,8.60
2022-08-26T05:22:21.049Z,9.07
2022-08-26T05:24:48.818Z,13.43
2022-08-26T05:27:16.766Z,15.53
2022-08-26T05:29:46.907Z,17.60
2022-08-26T05:32:22.441Z,10.73
2022-08-26T05:34:55.361Z,12.70
2022-08-26T05:37:23.056Z,12.97
2022-08-26T05:39:51.492Z,16.23
2022-08-26T05:42:19.836Z,13.03
2022-08-26T05:44:55.619Z,8.37
2022-08-26T05:47:24.191Z,12.40
2022-08-26T05:49:51.977Z,12.33
2022-08-26T05:52:20.029Z,10.10
2022-08-26T05:54:47.853Z,13.20
2022-08-26T05:57:16.005Z,10.13
2022-08-26T05:59:46.309Z,16.40
2022-08-26T06:02:15.304Z,10.90
2022-08-26T06:04:43.377Z,8.83
2022-08-26T06:07:12.074Z,10.93
2022-08-26T06:09:41.466Z,8.23
2022-08-26T06:12:09.652Z,7.30
2022-08-26T06:14:37.294Z,10.67
2022-08-26T06:17:04.960Z,12.53
2022-08-26T06:19:34.423Z,9.80
2022-08-26T06:22:23.416Z,6.80
2022-08-26T06:25:09.037Z,12.07
2022-08-26T06:27:37.786Z,6.97
2022-08-26T06:30:06.447Z,10.70
2022-08-26T06:32:34.144Z,10.20
2022-08-26T06:35:03.500Z,11.00
2022-08-26T06:37:31.223Z,12.57
2022-08-26T06:40:00.739Z,11.60
2022-08-26T06:42:28.511Z,18.10
2022-08-26T06:44:56.625Z,10.60
2022-08-26T06:47:24.439Z,11.73
2022-08-26T06:49:52.615Z,16.67
2022-08-26T06:52:24.368Z,16.63
2022-08-26T06:54:52.353Z,9.27
2022-08-26T06:57:20.739Z,9.63
2022-08-26T06:59:51.096Z,20.47
2022-08-26T07:02:19.531Z,10.13
2022-08-26T07:04:48.519Z,8.00
2022-08-26T07:07:21.964Z,13.30
2022-08-26T07:09:52.440Z,9.53
2022-08-26T07:12:20.503Z,10.73
2022-08-26T07:14:48.483Z,9.00
2022-08-26T07:17:16.332Z,8.07
2022-08-26T07:19:44.245Z,5.97
2022-08-26T07:22:12.003Z,8.40
2022-08-26T07:24:42.569Z,8.30
2022-08-26T07:27:15.652Z,9.10
2022-08-26T07:29:44.787Z,8.93
2022-08-26T07:32:14.485Z,11.20
2022-08-26T07:34:43.281Z,6.20
2022-08-26T07:37:11.556Z,9.50
2022-08-26T07:39:40.489Z,17.37
2022-08-26T07:42:11.698Z,8.37
2022-08-26T07:44:41.490Z,8.53
2022-08-26T07:47:10.166Z,10.80
2022-08-26T07:49:47.216Z,9.90
2022-08-26T07:52:25.320Z,15.23
2022-08-26T07:54:54.352Z,9.57
2022-08-26T07:57:22.042Z,6.43
2022-08-26T07:59:53.964Z,7.63
2022-08-26T08:02:23.919Z,10.53
2022-08-26T08:04:52.240Z,7.50
2022-08-26T08:07:20.207Z,14.00
2022-08-26T08:09:49.679Z,11.00
2022-08-26T08:12:17.988Z,9.13
2022-08-26T08:14:46.842Z,11.03
2022-08-26T08:17:17.491Z,10.53
2022-08-26T08:19:46.875Z,8.47
2022-08-26T08:22:17.116Z,9.53
2022-08-26T08:24:45.864Z,7.23
2022-08-26T08:27:22.834Z,9.70
2022-08-26T08:29:54.093Z,7.40
2022-08-26T08:32:23.711Z,11.60
2022-08-26T08:34:51.669Z,9.60
2022-08-26T08:37:21.320Z,10.83
2022-08-26T08:39:49.156Z,10.10
2022-08-26T08:42:37.719Z,10.00
2022-08-26T08:45:10.205Z,9.00
2022-08-26T08:47:43.859Z,6.73
2022-08-26T08:50:22.706Z,13.20
2022-08-26T08:52:56.172Z,10.23
2022-08-26T08:55:29.526Z,14.23
2022-08-26T08:58:06.582Z,9.43
2022-08-26T09:00:43.727Z,7.50
2022-08-26T09:03:25.429Z,9.93
2022-08-26T09:05:55.422Z,16.70
2022-08-26T09:08:29.365Z,12.63
2022-08-26T09:10:59.519Z,12.77
2022-08-26T09:13:29.046Z,12.70
2022-08-26T09:16:08.292Z,15.77
2022-08-26T09:18:54.130Z,11.47
2022-08-26T09:21:25.299Z,11.07
2022-08-26T09:23:55.362Z,10.73
2022-08-26T09:26:29.671Z,10.53
2022-08-26T09:29:00.564Z,9.20
2022-08-26T09:31:31.134Z,14.37
2022-08-26T09:34:17.528Z,17.50
2022-08-26T09:36:47.291Z,10.03
2022-08-26T09:39:34.711Z,12.20
2022-08-26T09:42:11.505Z,9.67
2022-08-26T09:44:57.860Z,12.20
2022-08-26T09:47:30.063Z,8.20
2022-08-26T09:50:04.216Z,9.40
2022-08-26T09:52:37.343Z,10.47
2022-08-26T09:55:13.634Z,14.47
2022-08-26T09:57:52.457Z,12.10
2022-08-26T10:00:31.430Z,8.93
2022-08-26T10:03:01.148Z,10.63
2022-08-26T10:05:36.936Z,8.53
2022-08-26T10:08:20.858Z,9.37
2022-08-26T10:10:53.070Z,13.23
2022-08-26T10:13:26.881Z,10.70
2022-08-26T10:16:10.847Z,6.50
2022-08-26T10:18:43.013Z,7.77
2022-08-26T10:21:18.039Z,10.13
2022-08-26T10:23:50.953Z,7.70
2022-08-26T10:26:26.278Z,7.50
2022-08-26T10:28:58.362Z,9.13
2022-08-26T10:31:38.274Z,13.07
2022-08-26T10:34:09.367Z,20.57
2022-08-26T10:37:14.896Z,15.53
2022-08-26T10:39:46.171Z,6.17
2022-08-26T10:42:22.272Z,13.73
2022-08-26T10:44:54.037Z,15.80
2022-08-26T10:47:32.484Z,8.20
2022-08-26T10:50:03.250Z,11.70
2022-08-26T10:52:48.396Z,7.47
2022-08-26T10:55:20.799Z,9.47
2022-08-26T10:57:58.249Z,10.90
2022-08-26T11:00:49.110Z,7.43
2022-08-26T11:03:31.439Z,11.13
2022-08-26T11:06:21.054Z,13.63
2022-08-26T11:08:50.988Z,6.70
2022-08-26T11:11:49.088Z,7.97
2022-08-26T11:14:44.654Z,6.97
2022-08-26T11:17:56.333Z,9.83
2022-08-26T11:20:35.175Z,13.63
2022-08-26T11:23:37.910Z,6.97
2022-08-26T11:26:37.731Z,13.10
2022-08-26T11:29:11.978Z,11.93
2022-08-26T11:31:55.526Z,10.63
2022-08-26T11:34:52.444Z,11.20
2022-08-26T11:39:57.306Z,13.17
2022-08-26T11:42:36.091Z,9.87
2022-08-26T11:45:15.395Z,12.40
2022-08-26T11:47:43.199Z,11.67
2022-08-26T11:50:15.233Z,17.53
2022-08-26T11:52:51.971Z,20.93
2022-08-26T11:55:20.065Z,18.17
2022-08-26T11:57:56.813Z,20.10
2022-08-26T12:00:31.442Z,18.30
2022-08-26T12:03:07.638Z,12.57
2022-08-26T12:05:39.717Z,13.60
2022-08-26T12:08:10.062Z,15.33
2022-08-26T12:10:39.058Z,12.70
2022-08-26T12:13:10.079Z,16.00
2022-08-26T12:15:38.174Z,16.27
2022-08-26T12:18:28.912Z,15.87
2022-08-26T12:21:00.179Z,13.57
2022-08-26T12:23:40.153Z,17.57
2022-08-26T12:26:11.879Z,15.23
2022-08-26T12:28:50.691Z,14.33
2022-08-26T12:31:24.883Z,17.33
2022-08-26T12:33:56.296Z,14.17
2022-08-26T12:36:31.353Z,16.57
2022-08-26T12:39:08.479Z,13.27
2022-08-26T12:41:42.470Z,16.73
2022-08-26T12:44:39.129Z,12.93
2022-08-26T12:47:10.844Z,17.33
2022-08-26T12:49:39.924Z,13.93
2022-08-26T12:52:29.716Z,15.30
2022-08-26T12:55:00.024Z,16.13
2022-08-26T12:57:31.267Z,15.20
2022-08-26T13:00:32.983Z,10.87
2022-08-26T13:03:01.757Z,12.37
2022-08-26T13:05:34.066Z,17.13
2022-08-26T13:08:25.928Z,27.93
2022-08-26T13:11:05.239Z,15.43
2022-08-26T13:13:34.561Z,12.33
2022-08-26T13:16:04.058Z,11.50
2022-08-26T13:18:31.708Z,11.77
2022-08-26T13:20:59.447Z,9.83
2022-08-26T13:23:27.065Z,10.00
2022-08-26T13:25:54.690Z,15.70
2022-08-26T13:28:22.280Z,15.47
2022-08-26T13:30:49.956Z,14.77
2022-08-26T13:33:19.321Z,17.07
2022-08-26T13:35:48.135Z,9.80
2022-08-26T13:38:20.591Z,12.70
2022-08-26T13:41:02.652Z,13.97
2022-08-26T13:43:30.519Z,16.57
2022-08-26T13:45:58.195Z,12.20
2022-08-26T13:48:27.526Z,9.77
2022-08-26T13:50:55.368Z,14.43
2022-08-26T13:53:23.264Z,13.30
2022-08-26T13:55:51.007Z,13.37
2022-08-26T13:58:18.766Z,13.23
2022-08-26T14:00:46.542Z,14.23
2022-08-26T14:03:15.090Z,17.03
2022-08-26T14:05:44.132Z,18.90
2022-08-26T14:08:12.068Z,18.30
2022-08-26T14:10:39.777Z,17.00
2022-08-26T14:13:08.298Z,21.53
2022-08-26T14:15:38.949Z,14.40
2022-08-26T14:18:09.995Z,16.57
2022-08-26T14:20:39.193Z,15.47
2022-08-26T14:23:14.265Z,16.80
2022-08-26T14:25:42.356Z,14.37
2022-08-26T14:28:10.352Z,16.10
2022-08-26T14:30:40.852Z,14.60
2022-08-26T14:33:12.928Z,18.33
2022-08-26T14:35:47.935Z,14.10
2022-08-26T14:38:18.277Z,15.13
2022-08-26T14:40:46.373Z,19.43
2022-08-26T14:43:16.104Z,20.63
2022-08-26T14:45:45.701Z,12.00
2022-08-26T14:48:13.759Z,22.00
2022-08-26T14:50:41.954Z,19.20
2022-08-26T14:53:27.216Z,14.53
2022-08-26T14:55:56.227Z,11.97
2022-08-26T14:58:23.989Z,13.00
2022-08-26T15:00:51.623Z,14.00
2022-08-26T15:05:51.805Z,11.43
2022-08-26T15:08:20.716Z,11.43
2022-08-26T15:10:48.308Z,11.00
2022-08-26T15:13:17.750Z,13.37
2022-08-26T15:15:45.448Z,12.10
2022-08-26T15:18:13.188Z,13.10
2022-08-26T15:20:41.004Z,12.87
2022-08-26T15:23:08.792Z,11.00
2022-08-26T15:25:37.099Z,15.60
2022-08-26T15:28:06.180Z,13.77
2022-08-26T15:30:35.289Z,13.17
2022-08-26T15:33:03.249Z,15.20
2022-08-26T15:35:32.917Z,14.40
2022-08-26T15:38:03.099Z,18.07
2022-08-26T15:40:30.788Z,14.27
2022-08-26T15:43:17.885Z,21.30
2022-08-26T15:45:47.601Z,20.50
2022-08-26T15:48:16.241Z,17.40
2022-08-26T15:50:51.478Z,14.70
2022-08-26T15:53:19.300Z,16.23
2022-08-26T15:55:48.867Z,16.90
2022-08-26T15:58:17.910Z,22.17
2022-08-26T16:00:46.884Z,16.13
2022-08-26T16:03:14.612Z,17.53
2022-08-26T16:05:44.345Z,17.73
2022-08-26T16:08:12.431Z,15.87
2022-08-26T16:10:45.439Z,18.50
2022-08-26T16:13:17.378Z,19.90
2022-08-26T16:15:45.190Z,20.47
2022-08-26T16:18:15.394Z,21.33
2022-08-26T16:20:58.554Z,17.50
2022-08-26T16:23:38.314Z,18.27
2022-08-26T16:26:16.605Z,23.20
2022-08-26T16:28:51.064Z,16.37
2022-08-26T16:31:19.312Z,14.87
2022-08-26T16:33:48.560Z,18.73
2022-08-26T16:36:16.640Z,16.30
2022-08-26T16:38:50.279Z,17.23
2022-08-26T16:41:18.463Z,20.40
2022-08-26T16:43:46.587Z,20.10
2022-08-26T16:46:16.110Z,35.37
2022-08-26T16:48:45.131Z,22.60
2022-08-26T16:51:16.030Z,26.90
2022-08-26T16:53:44.293Z,27.33
2022-08-26T16:56:15.528Z,19.33
2022-08-26T16:58:43.470Z,28.13
2022-08-26T17:01:11.656Z,24.70
2022-08-26T17:03:39.547Z,28.40
2022-08-26T17:06:09.901Z,26.80
2022-08-26T17:08:39.724Z,23.10
2022-08-26T17:11:08.347Z,27.00
2022-08-26T17:13:37.989Z,31.90
2022-08-26T17:16:07.568Z,30.93
2022-08-26T17:18:37.043Z,37.57
2022-08-26T17:21:08.100Z,37.73
2022-08-26T17:23:37.032Z,42.87
2022-08-26T17:26:06.234Z,39.63
2022-08-26T17:28:34.577Z,42.20
2022-08-26T17:31:02.680Z,39.17
2022-08-26T17:33:30.878Z,37.90
2022-08-26T17:35:58.557Z,33.30
2022-08-26T17:38:29.162Z,32.33
2022-08-26T17:40:57.324Z,32.60
2022-08-26T17:43:27.671Z,38.80
2022-08-26T17:46:06.690Z,39.63
2022-08-26T17:48:35.589Z,36.73
2022-08-26T17:51:07.682Z,35.33
2022-08-26T17:53:35.496Z,37.63
2022-08-26T17:56:05.640Z,34.93
2022-08-26T17:58:37.733Z,33.50
2022-08-26T18:01:06.390Z,28.77
2022-08-26T18:03:35.083Z,31.53
2022-08-26T18:06:03.700Z,33.23
2022-08-26T18:08:31.322Z,31.57
2022-08-26T18:10:59.046Z,27.40
2022-08-26T18:13:26.928Z,28.67
2022-08-26T18:15:56.254Z,32.63
2022-08-26T18:18:23.932Z,29.40
2022-08-26T18:20:52.579Z,27.43
2022-08-26T18:23:31.483Z,29.50
2022-08-26T18:25:59.330Z,27.50
2022-08-26T18:28:26.973Z,27.23
2022-08-26T18:30:56.990Z,24.30
2022-08-26T18:33:25.537Z,25.87
2022-08-26T18:35:53.654Z,21.37
2022-08-26T18:38:21.196Z,22.90
2022-08-26T18:40:50.193Z,23.33
2022-08-26T18:43:17.878Z,33.40
2022-08-26T18:45:45.662Z,20.83
2022-08-26T18:48:14.920Z,25.20
2022-08-26T18:50:46.981Z,21.90
2022-08-26T18:53:15.610Z,22.07
2022-08-26T18:55:43.277Z,25.93
2022-08-26T18:58:11.648Z,23.93
2022-08-26T19:00:39.489Z,24.83
2022-08-26T19:03:08.308Z,26.00
2022-08-26T19:05:47.964Z,24.47
2022-08-26T19:08:15.531Z,24.30
2022-08-26T19:10:43.162Z,18.87
2022-08-26T19:13:11.241Z,25.33
2022-08-26T19:15:40.216Z,22.97
2022-08-26T19:18:08.548Z,21.13
2022-08-26T19:20:41.485Z,23.67
2022-08-26T19:23:30.563Z,27.73
2022-08-26T19:26:00.021Z,19.63
2022-08-26T19:28:27.627Z,26.60
2022-08-26T19:30:55.420Z,22.93
2022-08-26T19:33:23.168Z,19.30
2022-08-26T19:35:50.934Z,24.60
2022-08-26T19:38:20.170Z,18.90
2022-08-26T19:40:48.435Z,20.97
2022-08-26T19:43:16.210Z,20.10
2022-08-26T19:45:44.649Z,22.57
2022-08-26T19:48:12.296Z,28.80
2022-08-26T19:50:40.187Z,22.50
2022-08-26T19:53:07.821Z,23.53
2022-08-26T19:55:37.051Z,21.10
2022-08-26T19:58:04.936Z,21.63
2022-08-26T20:00:33.628Z,21.80
2022-08-26T20:03:01.484Z,17.30
2022-08-26T20:05:29.387Z,24.57
2022-08-26T20:07:57.107Z,22.40
2022-08-26T20:10:25.698Z,22.73
2022-08-26T20:12:54.747Z,20.97
2022-08-26T20:15:23.703Z,22.93
2022-08-26T20:17:51.548Z,17.30
2022-08-26T20:20:37.234Z,19.80
2022-08-26T20:23:06.115Z,23.20
2022-08-26T20:25:34.564Z,20.33
2022-08-26T20:28:03.936Z,20.97
2022-08-26T20:30:31.814Z,18.80
2022-08-26T20:32:59.489Z,19.97
2022-08-26T20:35:27.367Z,20.67
2022-08-26T20:37:54.980Z,19.07
2022-08-26T20:40:23.050Z,18.23
2022-08-26T20:42:50.725Z,18.60
2022-08-26T20:45:19.888Z,17.00
2022-08-26T20:47:47.531Z,17.60
2022-08-26T20:50:15.131Z,16.90
2022-08-26T20:52:42.755Z,16.10
2022-08-26T20:55:12.884Z,18.03
2022-08-26T20:57:43.164Z,18.50
2022-08-26T21:00:14.147Z,18.97
2022-08-26T21:02:44.094Z,22.43
2022-08-26T21:05:11.829Z,19.00
2022-08-26T21:07:39.527Z,17.93
2022-08-26T21:10:07.649Z,17.47
2022-08-26T21:12:36.247Z,18.80
2022-08-26T21:15:04.068Z,19.73
2022-08-26T21:17:32.276Z,19.50
2022-08-26T21:20:01.480Z,20.03
2022-08-26T21:22:30.238Z,24.97
2022-08-26T21:24:58.195Z,16.77
2022-08-26T21:27:26.523Z,25.33
2022-08-26T21:29:55.594Z,23.00
2022-08-26T21:32:23.333Z,19.03
2022-08-26T21:34:51.024Z,17.30
2022-08-26T21:37:20.020Z,16.33
2022-08-26T21:39:47.683Z,18.60
2022-08-26T21:42:15.646Z,14.60
2022-08-26T21:44:45.034Z,17.17
2022-08-26T21:47:20.717Z,18.23
2022-08-26T21:49:48.472Z,18.47
2022-08-26T21:52:16.330Z,19.57
2022-08-26T21:54:49.374Z,19.87
2022-08-26T21:57:17.653Z,17.57
2022-08-26T21:59:45.376Z,18.70
2022-08-26T22:02:13.273Z,22.93
2022-08-26T22:04:43.657Z,16.03
2022-08-26T22:07:14.601Z,14.17
2022-08-26T22:09:42.559Z,19.70
2022-08-26T22:12:16.007Z,16.57
2022-08-26T22:14:43.662Z,15.33
2022-08-26T22:17:11.389Z,18.27
2022-08-26T22:19:46.377Z,14.93
2022-08-26T22:22:14.991Z,16.00
2022-08-26T22:24:43.229Z,21.10
2022-08-26T22:27:11.924Z,17.80
2022-08-26T22:29:40.993Z,19.37
2022-08-26T22:32:09.382Z,15.83
2022-08-26T22:34:38.316Z,17.63
2022-08-26T22:37:06.408Z,20.53
2022-08-26T22:39:34.295Z,20.60
2022-08-26T22:42:02.526Z,16.13
2022-08-26T22:44:30.494Z,17.93
2022-08-26T22:47:01.223Z,18.17
2022-08-26T22:49:28.988Z,18.60
2022-08-26T22:51:56.597Z,13.97
2022-08-26T22:54:24.718Z,16.00
2022-08-26T22:56:52.311Z,18.17
2022-08-26T22:59:19.961Z,19.60
2022-08-26T23:01:47.695Z,13.70
2022-08-26T23:04:16.677Z,19.73
2022-08-26T23:06:47.567Z,20.53
2022-08-26T23:09:17.798Z,22.07
2022-08-26T23:11:47.162Z,14.00
2022-08-26T23:14:15.495Z,18.73
2022-08-26T23:16:43.447Z,17.33
2022-08-26T23:19:12.703Z,23.40
2022-08-26T23:21:41.933Z,16.73
2022-08-26T23:24:10.058Z,18.47
2022-08-26T23:26:38.497Z,14.50
2022-08-26T23:29:08.241Z,12.23
2022-08-26T23:31:37.538Z,18.37
2022-08-26T23:34:22.626Z,13.80
2022-08-26T23:36:53.892Z,19.63
2022-08-26T23:39:22.157Z,21.80
2022-08-26T23:41:49.821Z,15.63
2022-08-26T23:44:17.470Z,13.40
2022-08-26T23:46:45.049Z,14.60
2022-08-26T23:49:12.790Z,22.50
2022-08-26T23:51:58.019Z,19.10
2022-08-26T23:54:27.055Z,18.03
2022-08-26T23:56:54.689Z,15.57
2022-08-26T23:59:22.394Z,14.27
